createdAt,value
2022-10-11T00:00:49.147Z,66.53
2022-10-11T00:03:17.784Z,66.91
2022-10-11T00:05:45.137Z,67.39
2022-10-11T00:08:13.763Z,67.06
2022-10-11T00:10:41.425Z,67.36
2022-10-11T00:13:08.977Z,67.57
2022-10-11T00:15:36.311Z,67.60
2022-10-11T00:18:05.492Z,67.05
2022-10-11T00:20:33.016Z,67.39
2022-10-11T00:23:00.450Z,66.82
2022-10-11T00:25:27.749Z,67.44
2022-10-11T00:27:55.027Z,66.30
2022-10-11T00:30:22.964Z,66.91
2022-10-11T00:32:50.729Z,67.04
2022-10-11T00:35:21.779Z,68.02
2022-10-11T00:37:49.148Z,67.21
2022-10-11T00:40:20.118Z,66.82
2022-10-11T00:42:47.595Z,66.85
2022-10-11T00:45:26.963Z,67.34
2022-10-11T00:48:00.415Z,66.99
2022-10-11T00:50:32.908Z,67.03
2022-10-11T00:53:10.304Z,67.02
2022-10-11T00:55:42.516Z,68.11
2022-10-11T00:58:11.397Z,66.18
2022-10-11T01:00:38.751Z,66.89
2022-10-11T01:03:06.473Z,67.72
2022-10-11T01:05:37.706Z,67.30
2022-10-11T01:08:06.428Z,67.33
2022-10-11T01:10:34.149Z,67.34
2022-10-11T01:13:48.962Z,67.71
2022-10-11T01:16:38.093Z,67.36
2022-10-11T01:19:11.449Z,67.45
2022-10-11T01:21:50.312Z,67.31
2022-10-11T01:24:49.867Z,67.40
2022-10-11T01:27:28.338Z,67.18
2022-10-11T01:30:01.606Z,67.19
2022-10-11T01:32:34.944Z,67.29
2022-10-11T01:35:38.328Z,68.20
2022-10-11T01:38:17.075Z,67.29
2022-10-11T01:40:52.889Z,68.00
2022-10-11T01:43:24.330Z,68.17
2022-10-11T01:45:56.179Z,69.43
2022-10-11T01:48:23.849Z,68.98
2022-10-11T01:50:57.281Z,69.13
2022-10-11T01:53:40.718Z,68.56
2022-10-11T01:56:26.404Z,69.11
2022-10-11T01:59:11.104Z,69.86
2022-10-11T02:01:59.608Z,69.74
2022-10-11T02:04:56.115Z,68.95
2022-10-11T02:07:33.650Z,69.65
2022-10-11T02:10:05.756Z,69.14
2022-10-11T02:12:39.895Z,70.10
2022-10-11T02:15:11.589Z,71.23
2022-10-11T02:17:52.431Z,69.89
2022-10-11T02:20:24.222Z,69.97
2022-10-11T02:22:59.104Z,69.50
2022-10-11T02:25:30.031Z,69.82
2022-10-11T02:28:00.939Z,70.34
2022-10-11T02:30:30.680Z,70.54
2022-10-11T02:32:59.503Z,70.50
2022-10-11T02:35:30.595Z,72.09
2022-10-11T02:38:10.715Z,70.66
2022-10-11T02:40:42.613Z,70.41
2022-10-11T02:43:40.086Z,70.48
2022-10-11T02:46:09.566Z,69.79
2022-10-11T02:48:37.655Z,69.18
2022-10-11T02:51:05.572Z,70.24
2022-10-11T02:53:33.058Z,70.49
2022-10-11T02:56:00.624Z,70.18
2022-10-11T02:58:27.889Z,69.95
2022-10-11T03:00:55.277Z,70.18
2022-10-11T03:03:22.724Z,70.00
2022-10-11T03:05:50.136Z,70.71
2022-10-11T03:08:17.902Z,69.74
2022-10-11T03:10:45.319Z,69.50
2022-10-11T03:13:17.255Z,69.62
2022-10-11T03:16:02.669Z,70.64
2022-10-11T03:18:31.465Z,69.22
2022-10-11T03:20:58.762Z,69.63
2022-10-11T03:23:26.567Z,69.70
2022-10-11T03:25:53.913Z,69.69
2022-10-11T03:28:22.094Z,69.36
2022-10-11T03:30:53.421Z,69.50
2022-10-11T03:33:20.916Z,69.73
2022-10-11T03:35:49.097Z,69.54
2022-10-11T03:38:20.276Z,69.11
2022-10-11T03:40:48.078Z,70.34
2022-10-11T03:43:15.715Z,70.94
2022-10-11T03:45:43.011Z,70.94
2022-10-11T03:48:10.621Z,72.06
2022-10-11T03:50:38.674Z,80.28
2022-10-11T03:53:07.450Z,67.81
2022-10-11T03:55:35.115Z,65.42
2022-10-11T03:58:02.512Z,70.40
2022-10-11T04:00:30.273Z,64.61
2022-10-11T04:03:11.083Z,64.83
2022-10-11T04:05:38.446Z,66.33
2022-10-11T04:08:11.113Z,69.04
2022-10-11T04:10:39.765Z,68.64
2022-10-11T04:13:11.383Z,66.92
2022-10-11T04:15:40.127Z,64.89
2022-10-11T04:18:08.784Z,63.92
2022-10-11T04:20:46.504Z,63.81
2022-10-11T04:23:15.917Z,66.73
2022-10-11T04:25:44.169Z,69.61
2022-10-11T04:28:12.237Z,72.26
2022-10-11T04:30:40.075Z,71.25
2022-10-11T04:33:15.856Z,71.30
2022-10-11T04:35:43.835Z,71.05
2022-10-11T04:38:14.789Z,72.23
2022-10-11T04:40:42.083Z,72.00
2022-10-11T04:43:09.459Z,72.30
2022-10-11T04:45:42.131Z,72.07
2022-10-11T04:48:15.948Z,72.41
2022-10-11T04:50:49.559Z,72.40
2022-10-11T04:53:16.851Z,72.37
2022-10-11T04:55:58.397Z,73.47
2022-10-11T04:58:26.220Z,72.70
2022-10-11T05:00:53.880Z,72.46
2022-10-11T05:03:21.628Z,72.75
2022-10-11T05:05:50.156Z,73.03
2022-10-11T05:08:20.678Z,72.42
2022-10-11T05:11:07.561Z,72.53
2022-10-11T05:13:42.307Z,72.99
2022-10-11T05:16:11.305Z,73.74
2022-10-11T05:18:39.716Z,72.38
2022-10-11T05:21:16.050Z,72.64
2022-10-11T05:23:43.720Z,73.08
2022-10-11T05:26:11.113Z,73.11
2022-10-11T05:28:41.649Z,72.22
2022-10-11T05:31:09.598Z,71.48
2022-10-11T05:33:37.722Z,71.96
2022-10-11T05:36:06.759Z,72.77
2022-10-11T05:38:38.472Z,71.50
2022-10-11T05:41:06.320Z,71.89
2022-10-11T05:43:33.644Z,71.36
2022-10-11T05:46:01.758Z,71.29
2022-10-11T05:48:29.289Z,70.83
2022-10-11T05:51:01.698Z,70.71
2022-10-11T05:53:29.430Z,70.77
2022-10-11T05:55:57.037Z,71.71
2022-10-11T05:58:25.254Z,70.21
2022-10-11T06:00:52.883Z,70.32
2022-10-11T06:03:20.561Z,69.14
2022-10-11T06:06:03.124Z,70.57
2022-10-11T06:08:30.819Z,69.87
2022-10-11T06:11:15.541Z,70.41
2022-10-11T06:13:44.133Z,70.41
2022-10-11T06:16:14.314Z,70.28
2022-10-11T06:18:41.959Z,70.37
2022-10-11T06:21:09.255Z,69.74
2022-10-11T06:23:39.488Z,70.43
2022-10-11T06:26:15.072Z,70.60
2022-10-11T06:28:42.757Z,69.64
2022-10-11T06:31:13.202Z,69.16
2022-10-11T06:33:40.545Z,69.20
2022-10-11T06:36:12.946Z,70.21
2022-10-11T06:38:45.368Z,70.70
2022-10-11T06:41:17.831Z,70.86
2022-10-11T06:43:52.160Z,70.18
2022-10-11T06:46:21.047Z,70.07
2022-10-11T06:48:49.253Z,70.04
2022-10-11T06:51:22.161Z,69.84
2022-10-11T06:53:57.353Z,70.19
2022-10-11T06:56:26.655Z,68.34
2022-10-11T06:58:58.668Z,68.18
2022-10-11T07:01:31.976Z,68.30
2022-10-11T07:03:59.614Z,68.23
2022-10-11T07:06:30.840Z,69.09
2022-10-11T07:09:00.398Z,66.84
2022-10-11T07:11:31.234Z,66.96
2022-10-11T07:14:02.278Z,65.96
2022-10-11T07:16:29.713Z,66.46
2022-10-11T07:19:00.778Z,67.13
2022-10-11T07:21:31.465Z,66.92
2022-10-11T07:23:59.902Z,66.60
2022-10-11T07:26:35.256Z,68.40
2022-10-11T07:29:06.762Z,66.41
2022-10-11T07:31:36.815Z,65.97
2022-10-11T07:34:07.415Z,66.38
2022-10-11T07:36:37.477Z,68.01
2022-10-11T07:39:09.424Z,67.63
2022-10-11T07:41:46.067Z,66.90
2022-10-11T07:44:17.063Z,66.09
2022-10-11T07:46:53.401Z,66.20
2022-10-11T07:49:24.057Z,66.97
2022-10-11T07:51:51.332Z,67.17
2022-10-11T07:54:22.325Z,67.60
2022-10-11T07:56:52.743Z,69.31
2022-10-11T07:59:23.148Z,65.71
2022-10-11T08:01:56.599Z,65.76
2022-10-11T08:04:30.612Z,66.56
2022-10-11T08:06:59.367Z,67.80
2022-10-11T08:09:30.219Z,66.42
2022-10-11T08:11:58.611Z,66.65
2022-10-11T08:14:35.221Z,65.95
2022-10-11T08:17:08.993Z,67.47
2022-10-11T08:19:41.869Z,65.79
2022-10-11T08:22:09.244Z,66.07
2022-10-11T08:24:42.070Z,65.31
2022-10-11T08:27:09.405Z,66.82
2022-10-11T08:29:42.894Z,66.05
2022-10-11T08:32:13.135Z,65.29
2022-10-11T08:34:44.885Z,65.46
2022-10-11T08:37:16.748Z,65.46
2022-10-11T08:39:46.908Z,64.96
2022-10-11T08:42:39.332Z,64.44
2022-10-11T08:45:30.008Z,63.75
2022-10-11T08:48:17.848Z,64.44
2022-10-11T08:50:50.029Z,64.15
2022-10-11T08:53:40.962Z,63.85
2022-10-11T08:56:13.981Z,64.54
2022-10-11T08:58:54.158Z,64.31
2022-10-11T09:01:24.924Z,65.07
2022-10-11T09:03:53.940Z,64.89
2022-10-11T09:06:32.096Z,66.52
2022-10-11T09:09:11.549Z,64.14
2022-10-11T09:12:21.077Z,65.09
2022-10-11T09:15:36.824Z,64.41
2022-10-11T09:18:13.208Z,64.46
2022-10-11T09:20:59.435Z,64.38
2022-10-11T09:24:04.298Z,64.44
2022-10-11T09:26:56.816Z,65.92
2022-10-11T09:29:46.004Z,64.98
2022-10-11T09:32:16.713Z,64.65
2022-10-11T09:34:53.033Z,64.53
2022-10-11T09:37:27.607Z,64.77
2022-10-11T09:40:06.841Z,63.07
2022-10-11T09:42:37.117Z,64.16
2022-10-11T09:45:18.036Z,64.22
2022-10-11T09:47:49.664Z,64.51
2022-10-11T09:50:23.909Z,63.97
2022-10-11T09:53:03.977Z,63.59
2022-10-11T09:55:42.922Z,63.64
2022-10-11T09:58:39.510Z,63.86
2022-10-11T10:01:09.991Z,63.43
2022-10-11T10:03:41.042Z,63.15
2022-10-11T10:06:29.305Z,65.54
2022-10-11T10:09:25.775Z,62.44
2022-10-11T10:11:58.477Z,62.58
2022-10-11T10:14:34.713Z,62.19
2022-10-11T10:17:15.361Z,68.31
2022-10-11T10:19:53.179Z,61.30
2022-10-11T10:22:30.985Z,61.18
2022-10-11T10:25:02.281Z,62.16
2022-10-11T10:27:33.813Z,62.85
2022-10-11T10:30:15.474Z,61.31
2022-10-11T10:32:48.851Z,60.53
2022-10-11T10:35:42.915Z,61.05
2022-10-11T10:38:32.665Z,61.96
2022-10-11T10:41:11.802Z,61.43
2022-10-11T10:43:45.417Z,60.94
2022-10-11T10:46:34.156Z,61.70
2022-10-11T10:49:41.201Z,61.04
2022-10-11T10:52:38.208Z,60.64
2022-10-11T10:55:28.091Z,61.00
2022-10-11T10:58:24.911Z,62.40
2022-10-11T11:01:14.840Z,61.48
2022-10-11T11:03:59.838Z,61.34
2022-10-11T11:07:03.884Z,62.38
2022-10-11T11:09:49.595Z,61.18
2022-10-11T11:12:35.417Z,61.24
2022-10-11T11:15:32.610Z,60.65
2022-10-11T11:18:30.904Z,60.46
2022-10-11T11:21:26.428Z,61.32
2022-10-11T11:24:15.536Z,59.90
2022-10-11T11:26:55.289Z,60.78
2022-10-11T11:29:48.985Z,60.27
2022-10-11T11:32:56.917Z,63.53
2022-10-11T11:35:48.744Z,60.48
2022-10-11T11:38:42.662Z,61.50
2022-10-11T11:41:23.087Z,60.76
2022-10-11T11:44:00.577Z,61.17
2022-10-11T11:46:57.236Z,60.65
2022-10-11T11:49:34.165Z,60.13
2022-10-11T11:52:02.938Z,59.54
2022-10-11T11:54:51.932Z,59.70
2022-10-11T11:57:39.147Z,61.85
2022-10-11T12:00:17.729Z,60.01
2022-10-11T12:03:25.694Z,60.50
2022-10-11T12:06:19.716Z,60.63
2022-10-11T12:08:59.333Z,61.08
2022-10-11T12:11:41.126Z,60.59
2022-10-11T12:14:25.415Z,59.81
2022-10-11T12:17:14.221Z,61.91
2022-10-11T12:20:10.854Z,60.13
2022-10-11T12:22:55.144Z,60.99
2022-10-11T12:25:22.915Z,60.75
2022-10-11T12:27:53.663Z,61.50
2022-10-11T12:30:42.697Z,59.82
2022-10-11T12:33:52.464Z,59.11
2022-10-11T12:36:28.998Z,58.34
2022-10-11T12:39:20.511Z,58.65
2022-10-11T12:42:05.976Z,58.38
2022-10-11T12:44:33.600Z,58.77
2022-10-11T12:47:32.014Z,59.09
2022-10-11T12:50:22.907Z,59.30
2022-10-11T12:53:05.436Z,59.17
2022-10-11T12:55:39.005Z,59.03
2022-10-11T12:58:27.851Z,59.85
2022-10-11T13:00:55.324Z,58.83
2022-10-11T13:03:41.424Z,59.48
2022-10-11T13:06:19.489Z,59.60
2022-10-11T13:08:55.264Z,59.99
2022-10-11T13:11:27.869Z,59.74
2022-10-11T13:13:57.744Z,60.34
2022-10-11T13:16:29.070Z,62.12
2022-10-11T13:19:00.222Z,59.97
2022-10-11T13:21:30.606Z,60.32
2022-10-11T13:24:04.413Z,60.54
2022-10-11T13:26:37.793Z,59.87
2022-10-11T13:29:18.913Z,60.93
2022-10-11T13:31:48.271Z,60.29
2022-10-11T13:34:23.471Z,59.72
2022-10-11T13:36:58.593Z,61.11
2022-10-11T13:39:31.788Z,62.26
2022-10-11T13:42:01.098Z,61.17
2022-10-11T13:44:33.410Z,60.70
2022-10-11T13:47:03.825Z,60.76
2022-10-11T13:49:36.946Z,60.40
2022-10-11T13:52:19.747Z,60.75
2022-10-11T13:54:56.562Z,61.22
2022-10-11T13:57:44.186Z,60.71
2022-10-11T14:00:18.010Z,61.26
2022-10-11T14:02:55.473Z,60.20
2022-10-11T14:05:30.431Z,60.84
2022-10-11T14:08:07.884Z,61.57
2022-10-11T14:10:52.811Z,61.22
2022-10-11T14:13:32.658Z,61.17
2022-10-11T14:16:22.377Z,62.07
2022-10-11T14:19:02.097Z,61.82
2022-10-11T14:21:49.301Z,61.57
2022-10-11T14:24:19.470Z,62.15
2022-10-11T14:26:52.512Z,62.67
2022-10-11T14:29:26.471Z,62.91
2022-10-11T14:32:00.848Z,63.64
2022-10-11T14:34:31.663Z,62.88
2022-10-11T14:36:59.920Z,62.48
2022-10-11T14:39:30.253Z,62.99
2022-10-11T14:41:58.754Z,63.31
2022-10-11T14:44:28.858Z,62.88
2022-10-11T14:46:59.397Z,62.68
2022-10-11T14:49:30.002Z,63.05
2022-10-11T14:52:02.029Z,65.83
2022-10-11T14:54:30.540Z,63.39
2022-10-11T14:57:01.572Z,63.17
2022-10-11T14:59:33.427Z,63.58
2022-10-11T15:02:01.639Z,63.04
2022-10-11T15:04:29.206Z,63.93
2022-10-11T15:06:57.545Z,63.85
2022-10-11T15:09:25.721Z,63.79
2022-10-11T15:11:54.191Z,64.22
2022-10-11T15:14:25.325Z,64.56
2022-10-11T15:16:52.848Z,64.20
2022-10-11T15:19:22.347Z,64.11
2022-10-11T15:21:50.209Z,63.56
2022-10-11T15:24:17.673Z,63.73
2022-10-11T15:26:44.978Z,64.83
2022-10-11T15:29:14.116Z,64.56
2022-10-11T15:31:41.376Z,65.14
2022-10-11T15:34:08.729Z,66.08
2022-10-11T15:36:36.033Z,66.23
2022-10-11T15:39:03.597Z,66.96
2022-10-11T15:41:31.072Z,68.50
2022-10-11T15:43:58.347Z,69.79
2022-10-11T15:46:25.749Z,70.35
2022-10-11T15:48:53.263Z,70.39
2022-10-11T15:51:20.726Z,70.76
2022-10-11T15:53:48.026Z,70.39
2022-10-11T15:56:17.206Z,70.59
2022-10-11T15:58:45.274Z,70.90
2022-10-11T16:01:19.259Z,71.33
2022-10-11T16:03:48.941Z,71.61
2022-10-11T16:06:18.301Z,71.09
2022-10-11T16:08:45.977Z,71.16
2022-10-11T16:11:13.622Z,70.76
2022-10-11T16:13:41.327Z,79.67
2022-10-11T16:16:09.946Z,75.41
2022-10-11T16:18:38.116Z,71.53
2022-10-11T16:21:09.330Z,70.39
2022-10-11T16:23:36.923Z,68.21
2022-10-11T16:26:07.006Z,67.74
2022-10-11T16:28:34.971Z,66.69
2022-10-11T16:31:07.757Z,64.21
2022-10-11T16:33:35.292Z,65.11
2022-10-11T16:36:06.320Z,66.44
2022-10-11T16:38:33.992Z,68.67
2022-10-11T16:41:05.881Z,68.08
2022-10-11T16:43:33.268Z,66.62
2022-10-11T16:46:00.582Z,69.04
2022-10-11T16:48:27.931Z,70.66
2022-10-11T16:51:05.179Z,72.21
2022-10-11T16:53:36.235Z,73.10
2022-10-11T16:56:08.522Z,72.73
2022-10-11T16:58:36.761Z,75.04
2022-10-11T17:01:09.359Z,74.64
2022-10-11T17:03:37.388Z,75.69
2022-10-11T17:06:06.365Z,76.01
2022-10-11T17:08:34.080Z,76.50
2022-10-11T17:11:02.368Z,76.44
2022-10-11T17:13:29.878Z,75.79
2022-10-11T17:16:01.131Z,76.37
2022-10-11T17:18:28.514Z,76.36
2022-10-11T17:21:07.998Z,77.12
2022-10-11T17:23:36.426Z,77.15
2022-10-11T17:26:11.415Z,78.14
2022-10-11T17:28:39.270Z,78.68
2022-10-11T17:31:08.167Z,78.79
2022-10-11T17:33:36.238Z,78.88
2022-10-11T17:36:18.622Z,79.02
2022-10-11T17:38:46.112Z,78.59
2022-10-11T17:41:13.500Z,79.34
2022-10-11T17:43:40.997Z,80.19
2022-10-11T17:46:10.268Z,80.29
2022-10-11T17:48:38.148Z,79.09
2022-10-11T17:51:17.171Z,79.49
2022-10-11T17:53:46.861Z,79.88
2022-10-11T17:56:28.175Z,79.67
2022-10-11T17:58:58.919Z,81.33
2022-10-11T18:01:28.922Z,82.03
2022-10-11T18:03:59.073Z,82.29
2022-10-11T18:06:28.320Z,82.68
2022-10-11T18:08:56.795Z,81.86
2022-10-11T18:11:25.347Z,82.29
2022-10-11T18:13:53.132Z,82.27
2022-10-11T18:16:23.445Z,83.36
2022-10-11T18:18:51.071Z,83.64
2022-10-11T18:21:18.521Z,82.50
2022-10-11T18:23:46.311Z,81.95
2022-10-11T18:26:18.809Z,82.98
2022-10-11T18:28:47.218Z,82.40
2022-10-11T18:31:18.991Z,82.58
2022-10-11T18:33:47.121Z,82.61
2022-10-11T18:36:15.955Z,82.64
2022-10-11T18:38:48.404Z,83.03
2022-10-11T18:41:18.606Z,83.72
2022-10-11T18:43:55.238Z,83.83
2022-10-11T18:46:23.747Z,82.32
2022-10-11T18:48:55.596Z,81.92
2022-10-11T18:51:32.736Z,83.64
2022-10-11T18:54:05.335Z,84.58
2022-10-11T18:56:37.758Z,84.37
2022-10-11T18:59:13.554Z,84.35
2022-10-11T19:01:43.459Z,84.34
2022-10-11T19:04:15.085Z,84.32
2022-10-11T19:06:46.339Z,85.23
2022-10-11T19:09:18.322Z,85.28
2022-10-11T19:11:48.603Z,85.41
2022-10-11T19:14:20.298Z,85.67
2022-10-11T19:16:54.791Z,85.43
2022-10-11T19:19:25.318Z,86.67
2022-10-11T19:21:55.892Z,87.37
2022-10-11T19:24:26.043Z,87.09
2022-10-11T19:27:02.275Z,86.55
2022-10-11T19:29:31.867Z,86.88
2022-10-11T19:32:00.856Z,87.52
2022-10-11T19:34:28.794Z,87.45
2022-10-11T19:36:56.811Z,87.91
2022-10-11T19:39:28.284Z,87.72
2022-10-11T19:41:55.626Z,87.20
2022-10-11T19:44:23.037Z,87.09
2022-10-11T19:46:51.853Z,87.81
2022-10-11T19:49:21.884Z,88.68
2022-10-11T19:51:49.342Z,87.42
2022-10-11T19:54:19.311Z,86.35
2022-10-11T19:56:47.498Z,87.31
2022-10-11T19:59:17.588Z,86.12
2022-10-11T20:01:49.622Z,85.52
2022-10-11T20:04:47.110Z,85.61
2022-10-11T20:07:07.400Z,85.58
2022-10-11T20:09:37.101Z,86.41
2022-10-11T20:12:04.626Z,87.27
2022-10-11T20:14:35.361Z,86.92
2022-10-11T20:17:02.765Z,86.39
2022-10-11T20:19:31.217Z,86.30
2022-10-11T20:22:00.325Z,86.22
2022-10-11T20:24:28.350Z,85.95
2022-10-11T20:26:55.674Z,86.04
2022-10-11T20:29:26.368Z,86.51
2022-10-11T20:31:53.703Z,86.41
2022-10-11T20:34:23.919Z,86.43
2022-10-11T20:36:51.137Z,85.97
2022-10-11T20:39:18.516Z,85.59
2022-10-11T20:41:46.039Z,85.23
2022-10-11T20:44:13.754Z,85.60
2022-10-11T20:46:41.343Z,86.55
2022-10-11T20:49:10.647Z,86.64
2022-10-11T20:51:41.779Z,86.83
2022-10-11T20:54:09.728Z,87.63
2022-10-11T20:56:37.731Z,87.32
2022-10-11T20:59:05.050Z,87.87
2022-10-11T21:01:38.030Z,88.51
2022-10-11T21:04:07.886Z,87.87
2022-10-11T21:06:35.219Z,87.92
2022-10-11T21:09:02.529Z,88.44
2022-10-11T21:11:35.815Z,88.28
2022-10-11T21:14:19.778Z,88.34
2022-10-11T21:16:47.219Z,88.42
2022-10-11T21:19:15.243Z,88.05
2022-10-11T21:21:42.889Z,87.91
2022-10-11T21:24:10.159Z,88.09
2022-10-11T21:26:37.509Z,87.82
2022-10-11T21:29:05.024Z,88.16
2022-10-11T21:31:34.297Z,89.36
2022-10-11T21:34:02.900Z,89.23
2022-10-11T21:36:30.281Z,88.87
2022-10-11T21:39:01.303Z,88.76
2022-10-11T21:41:35.085Z,88.81
2022-10-11T21:44:05.023Z,88.17
2022-10-11T21:47:01.373Z,88.73
2022-10-11T21:49:20.168Z,88.51
2022-10-11T21:51:47.517Z,89.43
2022-10-11T21:54:14.936Z,88.57
2022-10-11T21:56:42.398Z,88.94
2022-10-11T21:59:12.321Z,89.91
2022-10-11T22:01:41.266Z,89.88
2022-10-11T22:04:09.529Z,89.83
2022-10-11T22:06:39.876Z,90.61
2022-10-11T22:09:07.739Z,90.74
2022-10-11T22:11:35.842Z,90.73
2022-10-11T22:14:04.012Z,91.78
2022-10-11T22:16:36.086Z,91.71
2022-10-11T22:19:04.153Z,91.73
2022-10-11T22:21:31.745Z,92.05
2022-10-11T22:23:59.118Z,92.13
2022-10-11T22:26:29.135Z,92.27
2022-10-11T22:28:58.168Z,92.46
2022-10-11T22:31:26.581Z,92.46
2022-10-11T22:33:55.664Z,92.70
2022-10-11T22:36:23.152Z,94.26
2022-10-11T22:38:51.151Z,93.48
2022-10-11T22:41:18.449Z,93.67
2022-10-11T22:43:45.744Z,93.78
2022-10-11T22:46:13.011Z,94.11
2022-10-11T22:48:40.376Z,94.22
2022-10-11T22:51:07.955Z,94.65
2022-10-11T22:53:35.262Z,94.69
2022-10-11T22:56:02.594Z,94.50
2022-10-11T22:58:29.896Z,93.72
2022-10-11T23:00:57.739Z,94.33
2022-10-11T23:03:25.057Z,94.88
2022-10-11T23:05:57.526Z,95.85
2022-10-11T23:08:25.197Z,95.44
2022-10-11T23:10:52.968Z,94.61
2022-10-11T23:13:21.372Z,95.25
2022-10-11T23:15:48.822Z,96.30
2022-10-11T23:18:16.572Z,97.05
2022-10-11T23:20:44.536Z,96.61
2022-10-11T23:23:12.108Z,97.24
2022-10-11T23:25:42.088Z,96.95
2022-10-11T23:28:09.431Z,96.00
2022-10-11T23:30:39.577Z,96.66
2022-10-11T23:33:07.031Z,96.72
2022-10-11T23:35:34.868Z,97.72
2022-10-11T23:38:02.248Z,98.36
2022-10-11T23:40:29.573Z,98.12
2022-10-11T23:42:57.153Z,98.20
2022-10-11T23:45:24.460Z,98.16
2022-10-11T23:47:51.804Z,98.43
2022-10-11T23:50:19.174Z,98.61
2022-10-11T23:52:46.562Z,98.55
2022-10-11T23:55:14.110Z,97.94
2022-10-11T23:57:41.730Z,98.35
